sensor_id;sensor_type;location;lat;lon;timestamp;temperature;humidity
42187;DHT22;27858;51.414;0.018;2023-02-12T00:00:46;9.60;43.80
42187;DHT22;27858;51.414;0.018;2023-02-12T00:03:13;9.50;43.70
42187;DHT22;27858;51.414;0.018;2023-02-12T00:05:40;9.50;44.60
42187;DHT22;27858;51.414;0.018;2023-02-12T00:08:08;9.60;42.20
42187;DHT22;27858;51.414;0.018;2023-02-12T00:10:41;9.50;44.90
42187;DHT22;27858;51.414;0.018;2023-02-12T00:13:11;9.40;45.30
42187;DHT22;27858;51.414;0.018;2023-02-12T00:15:39;9.50;43.10
42187;DHT22;27858;51.414;0.018;2023-02-12T00:18:07;9.50;45.00
42187;DHT22;27858;51.414;0.018;2023-02-12T00:20:34;9.50;50.70
42187;DHT22;27858;51.414;0.018;2023-02-12T00:23:01;9.50;45.00
42187;DHT22;27858;51.414;0.018;2023-02-12T00:25:28;9.40;40.10
42187;DHT22;27858;51.414;0.018;2023-02-12T00:27:55;9.50;42.00
42187;DHT22;27858;51.414;0.018;2023-02-12T00:30:22;9.40;56.20
42187;DHT22;27858;51.414;0.018;2023-02-12T00:32:49;9.50;50.60
42187;DHT22;27858;51.414;0.018;2023-02-12T00:35:15;9.30;49.50
42187;DHT22;27858;51.414;0.018;2023-02-12T00:37:42;9.40;55.80
42187;DHT22;27858;51.414;0.018;2023-02-12T00:40:09;9.40;58.70
42187;DHT22;27858;51.414;0.018;2023-02-12T00:42:36;9.40;62.70
42187;DHT22;27858;51.414;0.018;2023-02-12T00:45:03;9.50;65.60
42187;DHT22;27858;51.414;0.018;2023-02-12T00:47:29;9.40;61.70
42187;DHT22;27858;51.414;0.018;2023-02-12T00:49:56;9.40;57.80
42187;DHT22;27858;51.414;0.018;2023-02-12T00:52:23;9.40;63.20
42187;DHT22;27858;51.414;0.018;2023-02-12T00:54:50;9.30;73.10
42187;DHT22;27858;51.414;0.018;2023-02-12T00:57:16;9.30;78.80
42187;DHT22;27858;51.414;0.018;2023-02-12T00:59:43;9.40;79.70
42187;DHT22;27858;51.414;0.018;2023-02-12T01:02:10;9.40;71.00
42187;DHT22;27858;51.414;0.018;2023-02-12T01:04:37;9.40;74.50
42187;DHT22;27858;51.414;0.018;2023-02-12T01:07:04;9.40;69.70
42187;DHT22;27858;51.414;0.018;2023-02-12T01:09:30;9.30;64.00
42187;DHT22;27858;51.414;0.018;2023-02-12T01:11:57;9.20;75.90
42187;DHT22;27858;51.414;0.018;2023-02-12T01:14:24;9.20;82.40
42187;DHT22;27858;51.414;0.018;2023-02-12T01:16:50;9.20;91.00
42187;DHT22;27858;51.414;0.018;2023-02-12T01:19:17;9.30;92.50
42187;DHT22;27858;51.414;0.018;2023-02-12T01:21:44;9.20;93.30
42187;DHT22;27858;51.414;0.018;2023-02-12T01:24:11;9.10;92.50
42187;DHT22;27858;51.414;0.018;2023-02-12T01:26:38;9.20;95.40
42187;DHT22;27858;51.414;0.018;2023-02-12T01:29:06;9.30;96.70
42187;DHT22;27858;51.414;0.018;2023-02-12T01:31:36;9.20;95.70
42187;DHT22;27858;51.414;0.018;2023-02-12T01:34:05;9.30;92.90
42187;DHT22;27858;51.414;0.018;2023-02-12T01:36:33;9.30;92.20
42187;DHT22;27858;51.414;0.018;2023-02-12T01:39:00;9.20;91.90
42187;DHT22;27858;51.414;0.018;2023-02-12T01:41:39;9.30;87.60
42187;DHT22;27858;51.414;0.018;2023-02-12T01:46:39;9.20;81.80
42187;DHT22;27858;51.414;0.018;2023-02-12T01:49:12;9.10;79.30
42187;DHT22;27858;51.414;0.018;2023-02-12T01:51:40;9.20;82.90
42187;DHT22;27858;51.414;0.018;2023-02-12T01:54:09;9.20;83.50
42187;DHT22;27858;51.414;0.018;2023-02-12T01:56:37;9.20;80.20
42187;DHT22;27858;51.414;0.018;2023-02-12T01:59:04;9.20;85.80
42187;DHT22;27858;51.414;0.018;2023-02-12T02:01:32;9.30;90.70
42187;DHT22;27858;51.414;0.018;2023-02-12T02:04:07;9.30;92.80
42187;DHT22;27858;51.414;0.018;2023-02-12T02:06:44;9.20;90.60
42187;DHT22;27858;51.414;0.018;2023-02-12T02:09:16;9.20;91.60
42187;DHT22;27858;51.414;0.018;2023-02-12T02:11:43;9.30;92.30
42187;DHT22;27858;51.414;0.018;2023-02-12T02:14:28;9.20;90.40
42187;DHT22;27858;51.414;0.018;2023-02-12T02:20:08;9.20;82.60
42187;DHT22;27858;51.414;0.018;2023-02-12T02:31:22;9.20;92.70
42187;DHT22;27858;51.414;0.018;2023-02-12T02:34:15;9.20;92.80
42187;DHT22;27858;51.414;0.018;2023-02-12T02:39:36;9.30;93.60
42187;DHT22;27858;51.414;0.018;2023-02-12T02:42:10;9.20;94.30
42187;DHT22;27858;51.414;0.018;2023-02-12T02:44:47;9.20;94.70
42187;DHT22;27858;51.414;0.018;2023-02-12T02:47:21;9.20;93.80
42187;DHT22;27858;51.414;0.018;2023-02-12T02:49:54;9.20;95.40
42187;DHT22;27858;51.414;0.018;2023-02-12T02:52:47;9.30;96.50
42187;DHT22;27858;51.414;0.018;2023-02-12T02:55:17;9.20;92.30
42187;DHT22;27858;51.414;0.018;2023-02-12T02:58:00;9.20;90.40
42187;DHT22;27858;51.414;0.018;2023-02-12T03:00:50;9.20;89.80
42187;DHT22;27858;51.414;0.018;2023-02-12T03:06:05;9.20;89.90
42187;DHT22;27858;51.414;0.018;2023-02-12T03:08:40;9.10;91.10
42187;DHT22;27858;51.414;0.018;2023-02-12T03:11:26;9.10;92.90
42187;DHT22;27858;51.414;0.018;2023-02-12T03:16:37;9.20;90.30
42187;DHT22;27858;51.414;0.018;2023-02-12T03:19:16;9.20;90.30
42187;DHT22;27858;51.414;0.018;2023-02-12T03:24:32;9.10;91.20
42187;DHT22;27858;51.414;0.018;2023-02-12T03:27:09;9.20;90.40
42187;DHT22;27858;51.414;0.018;2023-02-12T03:29:36;9.10;92.60
42187;DHT22;27858;51.414;0.018;2023-02-12T03:37:49;9.10;99.40
42187;DHT22;27858;51.414;0.018;2023-02-12T03:45:57;9.10;99.90
42187;DHT22;27858;51.414;0.018;2023-02-12T03:48:34;9.10;99.90
42187;DHT22;27858;51.414;0.018;2023-02-12T03:51:15;9.20;99.90
42187;DHT22;27858;51.414;0.018;2023-02-12T03:53:43;9.20;99.90
42187;DHT22;27858;51.414;0.018;2023-02-12T03:56:13;9.10;99.90
42187;DHT22;27858;51.414;0.018;2023-02-12T03:58:43;9.20;99.90
42187;DHT22;27858;51.414;0.018;2023-02-12T04:01:12;9.20;99.90
42187;DHT22;27858;51.414;0.018;2023-02-12T04:03:40;9.10;99.90
42187;DHT22;27858;51.414;0.018;2023-02-12T04:06:26;9.20;99.90
42187;DHT22;27858;51.414;0.018;2023-02-12T04:08:57;9.20;99.90
42187;DHT22;27858;51.414;0.018;2023-02-12T04:11:50;9.10;99.90
42187;DHT22;27858;51.414;0.018;2023-02-12T04:28:42;9.20;99.90
42187;DHT22;27858;51.414;0.018;2023-02-12T04:31:30;9.10;99.90
42187;DHT22;27858;51.414;0.018;2023-02-12T04:36:56;9.10;99.90
42187;DHT22;27858;51.414;0.018;2023-02-12T04:39:30;9.10;99.90
42187;DHT22;27858;51.414;0.018;2023-02-12T04:41:59;9.10;99.90
42187;DHT22;27858;51.414;0.018;2023-02-12T04:44:28;9.00;99.90
42187;DHT22;27858;51.414;0.018;2023-02-12T04:46:56;9.10;99.90
42187;DHT22;27858;51.414;0.018;2023-02-12T04:49:24;9.10;99.90
42187;DHT22;27858;51.414;0.018;2023-02-12T04:51:51;9.10;99.90
42187;DHT22;27858;51.414;0.018;2023-02-12T04:54:19;9.10;99.90
42187;DHT22;27858;51.414;0.018;2023-02-12T04:56:47;8.90;99.90
42187;DHT22;27858;51.414;0.018;2023-02-12T04:59:14;8.90;99.90
42187;DHT22;27858;51.414;0.018;2023-02-12T05:01:42;9.00;99.90
42187;DHT22;27858;51.414;0.018;2023-02-12T05:04:14;9.00;99.90
42187;DHT22;27858;51.414;0.018;2023-02-12T05:06:42;9.00;99.90
42187;DHT22;27858;51.414;0.018;2023-02-12T05:09:14;8.90;99.90
42187;DHT22;27858;51.414;0.018;2023-02-12T05:11:41;8.90;99.90
42187;DHT22;27858;51.414;0.018;2023-02-12T05:14:08;9.00;99.90
42187;DHT22;27858;51.414;0.018;2023-02-12T05:16:35;8.90;99.90
42187;DHT22;27858;51.414;0.018;2023-02-12T05:19:02;8.90;99.90
42187;DHT22;27858;51.414;0.018;2023-02-12T05:21:29;8.90;99.90
42187;DHT22;27858;51.414;0.018;2023-02-12T05:23:55;8.80;99.90
42187;DHT22;27858;51.414;0.018;2023-02-12T05:26:23;8.80;99.90
42187;DHT22;27858;51.414;0.018;2023-02-12T05:28:50;8.70;99.90
42187;DHT22;27858;51.414;0.018;2023-02-12T05:31:18;8.80;99.90
42187;DHT22;27858;51.414;0.018;2023-02-12T05:33:47;8.60;99.90
42187;DHT22;27858;51.414;0.018;2023-02-12T05:36:17;8.70;99.90
42187;DHT22;27858;51.414;0.018;2023-02-12T05:38:44;8.60;99.90
42187;DHT22;27858;51.414;0.018;2023-02-12T05:41:14;8.70;99.90
42187;DHT22;27858;51.414;0.018;2023-02-12T05:43:40;8.70;99.90
42187;DHT22;27858;51.414;0.018;2023-02-12T05:46:08;8.60;99.90
42187;DHT22;27858;51.414;0.018;2023-02-12T05:48:36;8.70;99.90
42187;DHT22;27858;51.414;0.018;2023-02-12T05:53:35;8.70;99.90
42187;DHT22;27858;51.414;0.018;2023-02-12T05:56:23;8.70;99.90
42187;DHT22;27858;51.414;0.018;2023-02-12T05:59:04;8.70;99.90
42187;DHT22;27858;51.414;0.018;2023-02-12T06:01:34;8.70;99.90
42187;DHT22;27858;51.414;0.018;2023-02-12T06:04:03;8.60;99.90
42187;DHT22;27858;51.414;0.018;2023-02-12T06:06:30;8.60;99.90
42187;DHT22;27858;51.414;0.018;2023-02-12T06:09:00;8.70;99.90
42187;DHT22;27858;51.414;0.018;2023-02-12T06:11:27;8.50;99.90
42187;DHT22;27858;51.414;0.018;2023-02-12T06:13:54;8.60;99.90
42187;DHT22;27858;51.414;0.018;2023-02-12T06:16:26;8.60;99.90
42187;DHT22;27858;51.414;0.018;2023-02-12T06:18:54;8.50;99.90
42187;DHT22;27858;51.414;0.018;2023-02-12T06:21:23;8.60;99.90
42187;DHT22;27858;51.414;0.018;2023-02-12T06:23:51;8.60;99.90
42187;DHT22;27858;51.414;0.018;2023-02-12T06:26:18;8.60;99.90
42187;DHT22;27858;51.414;0.018;2023-02-12T06:28:45;8.50;99.90
42187;DHT22;27858;51.414;0.018;2023-02-12T06:31:27;8.70;99.90
42187;DHT22;27858;51.414;0.018;2023-02-12T06:33:57;8.50;99.90
42187;DHT22;27858;51.414;0.018;2023-02-12T06:36:24;8.60;99.90
42187;DHT22;27858;51.414;0.018;2023-02-12T06:38:51;8.50;99.90
42187;DHT22;27858;51.414;0.018;2023-02-12T06:41:18;8.60;99.90
42187;DHT22;27858;51.414;0.018;2023-02-12T06:43:45;8.60;99.90
42187;DHT22;27858;51.414;0.018;2023-02-12T06:46:12;8.70;99.90
42187;DHT22;27858;51.414;0.018;2023-02-12T06:48:39;8.60;99.90
42187;DHT22;27858;51.414;0.018;2023-02-12T06:51:08;8.60;99.90
42187;DHT22;27858;51.414;0.018;2023-02-12T06:53:35;8.70;99.90
42187;DHT22;27858;51.414;0.018;2023-02-12T06:56:04;8.60;99.90
42187;DHT22;27858;51.414;0.018;2023-02-12T06:58:31;8.70;99.90
42187;DHT22;27858;51.414;0.018;2023-02-12T07:01:11;8.70;99.90
42187;DHT22;27858;51.414;0.018;2023-02-12T07:03:42;8.60;99.90
42187;DHT22;27858;51.414;0.018;2023-02-12T07:06:09;8.70;99.90
42187;DHT22;27858;51.414;0.018;2023-02-12T07:08:36;8.70;99.90
42187;DHT22;27858;51.414;0.018;2023-02-12T07:11:03;8.60;99.90
42187;DHT22;27858;51.414;0.018;2023-02-12T07:13:30;8.70;99.90
42187;DHT22;27858;51.414;0.018;2023-02-12T07:16:04;8.70;99.90
42187;DHT22;27858;51.414;0.018;2023-02-12T07:18:33;8.80;99.90
42187;DHT22;27858;51.414;0.018;2023-02-12T07:21:00;8.70;99.90
42187;DHT22;27858;51.414;0.018;2023-02-12T07:23:27;8.70;99.90
42187;DHT22;27858;51.414;0.018;2023-02-12T07:25:58;8.80;99.90
42187;DHT22;27858;51.414;0.018;2023-02-12T07:28:25;8.70;99.90
42187;DHT22;27858;51.414;0.018;2023-02-12T07:30:53;8.70;99.90
42187;DHT22;27858;51.414;0.018;2023-02-12T07:33:19;8.70;99.90
42187;DHT22;27858;51.414;0.018;2023-02-12T07:35:46;8.80;99.90
42187;DHT22;27858;51.414;0.018;2023-02-12T07:38:13;8.60;99.90
42187;DHT22;27858;51.414;0.018;2023-02-12T07:40:40;8.60;99.90
42187;DHT22;27858;51.414;0.018;2023-02-12T07:43:06;8.70;99.90
42187;DHT22;27858;51.414;0.018;2023-02-12T07:45:33;8.60;99.90
42187;DHT22;27858;51.414;0.018;2023-02-12T07:48:00;8.50;99.90
42187;DHT22;27858;51.414;0.018;2023-02-12T07:50:27;8.50;99.90
42187;DHT22;27858;51.414;0.018;2023-02-12T07:52:53;8.60;99.90
42187;DHT22;27858;51.414;0.018;2023-02-12T07:55:20;8.60;99.90
42187;DHT22;27858;51.414;0.018;2023-02-12T07:57:47;8.50;99.90
42187;DHT22;27858;51.414;0.018;2023-02-12T08:00:14;8.70;99.90
42187;DHT22;27858;51.414;0.018;2023-02-12T08:02:41;8.50;99.90
42187;DHT22;27858;51.414;0.018;2023-02-12T08:05:08;8.70;99.90
42187;DHT22;27858;51.414;0.018;2023-02-12T08:07:34;8.70;99.90
42187;DHT22;27858;51.414;0.018;2023-02-12T08:10:01;8.70;99.90
42187;DHT22;27858;51.414;0.018;2023-02-12T08:12:28;8.70;99.90
42187;DHT22;27858;51.414;0.018;2023-02-12T08:14:55;8.50;99.90
42187;DHT22;27858;51.414;0.018;2023-02-12T08:17:21;8.50;99.90
42187;DHT22;27858;51.414;0.018;2023-02-12T08:19:48;8.50;99.90
42187;DHT22;27858;51.414;0.018;2023-02-12T08:22:15;8.40;99.90
42187;DHT22;27858;51.414;0.018;2023-02-12T08:24:41;8.70;99.90
42187;DHT22;27858;51.414;0.018;2023-02-12T08:27:08;8.70;99.90
42187;DHT22;27858;51.414;0.018;2023-02-12T08:29:35;8.70;99.90
42187;DHT22;27858;51.414;0.018;2023-02-12T08:32:02;8.80;99.90
42187;DHT22;27858;51.414;0.018;2023-02-12T08:34:33;8.70;99.90
42187;DHT22;27858;51.414;0.018;2023-02-12T08:37:01;8.70;99.90
42187;DHT22;27858;51.414;0.018;2023-02-12T08:39:29;8.90;99.90
42187;DHT22;27858;51.414;0.018;2023-02-12T08:41:57;8.90;99.90
42187;DHT22;27858;51.414;0.018;2023-02-12T08:44:25;8.90;99.90
42187;DHT22;27858;51.414;0.018;2023-02-12T08:46:52;9.00;99.90
42187;DHT22;27858;51.414;0.018;2023-02-12T08:49:21;8.90;99.90
42187;DHT22;27858;51.414;0.018;2023-02-12T08:51:51;9.00;99.90
42187;DHT22;27858;51.414;0.018;2023-02-12T08:54:20;9.10;99.90
42187;DHT22;27858;51.414;0.018;2023-02-12T08:56:47;8.90;99.90
42187;DHT22;27858;51.414;0.018;2023-02-12T08:59:15;9.00;99.90
42187;DHT22;27858;51.414;0.018;2023-02-12T09:01:43;9.20;99.90
42187;DHT22;27858;51.414;0.018;2023-02-12T09:04:21;9.00;99.90
42187;DHT22;27858;51.414;0.018;2023-02-12T09:06:49;9.00;99.90
42187;DHT22;27858;51.414;0.018;2023-02-12T09:09:17;9.00;99.90
42187;DHT22;27858;51.414;0.018;2023-02-12T09:11:45;9.00;99.90
42187;DHT22;27858;51.414;0.018;2023-02-12T09:14:14;9.10;99.90
42187;DHT22;27858;51.414;0.018;2023-02-12T09:16:42;9.30;99.90
42187;DHT22;27858;51.414;0.018;2023-02-12T09:19:11;9.30;99.90
42187;DHT22;27858;51.414;0.018;2023-02-12T09:21:39;9.10;99.90
42187;DHT22;27858;51.414;0.018;2023-02-12T09:24:06;9.40;99.90
42187;DHT22;27858;51.414;0.018;2023-02-12T09:26:33;9.40;99.90
42187;DHT22;27858;51.414;0.018;2023-02-12T09:29:01;9.20;99.90
42187;DHT22;27858;51.414;0.018;2023-02-12T09:31:30;9.20;99.90
42187;DHT22;27858;51.414;0.018;2023-02-12T09:33:59;9.40;99.90
42187;DHT22;27858;51.414;0.018;2023-02-12T09:36:27;9.60;99.90
42187;DHT22;27858;51.414;0.018;2023-02-12T09:38:54;9.50;99.90
42187;DHT22;27858;51.414;0.018;2023-02-12T09:45:03;9.50;99.90
42187;DHT22;27858;51.414;0.018;2023-02-12T09:50:30;9.60;99.90
42187;DHT22;27858;51.414;0.018;2023-02-12T09:53:00;9.40;99.90
42187;DHT22;27858;51.414;0.018;2023-02-12T09:55:30;9.60;99.90
42187;DHT22;27858;51.414;0.018;2023-02-12T09:57:59;9.60;99.90
42187;DHT22;27858;51.414;0.018;2023-02-12T10:00:28;9.70;99.90
42187;DHT22;27858;51.414;0.018;2023-02-12T10:03:02;9.60;99.90
42187;DHT22;27858;51.414;0.018;2023-02-12T10:05:35;9.60;99.90
42187;DHT22;27858;51.414;0.018;2023-02-12T10:08:25;9.60;99.90
42187;DHT22;27858;51.414;0.018;2023-02-12T10:19:58;9.40;99.90
42187;DHT22;27858;51.414;0.018;2023-02-12T10:28:18;9.40;99.90
42187;DHT22;27858;51.414;0.018;2023-02-12T10:30:56;9.50;99.90
42187;DHT22;27858;51.414;0.018;2023-02-12T10:38:53;9.60;99.90
42187;DHT22;27858;51.414;0.018;2023-02-12T10:41:21;9.50;99.90
42187;DHT22;27858;51.414;0.018;2023-02-12T10:43:52;9.60;99.90
42187;DHT22;27858;51.414;0.018;2023-02-12T10:46:18;9.60;99.90
42187;DHT22;27858;51.414;0.018;2023-02-12T10:48:50;9.70;99.90
42187;DHT22;27858;51.414;0.018;2023-02-12T10:51:47;9.80;99.90
42187;DHT22;27858;51.414;0.018;2023-02-12T10:59:34;9.70;99.90
42187;DHT22;27858;51.414;0.018;2023-02-12T11:02:01;9.70;99.90
42187;DHT22;27858;51.414;0.018;2023-02-12T11:04:31;9.60;99.90
42187;DHT22;27858;51.414;0.018;2023-02-12T11:07:02;9.40;99.90
42187;DHT22;27858;51.414;0.018;2023-02-12T11:09:34;9.50;99.90
42187;DHT22;27858;51.414;0.018;2023-02-12T11:12:02;9.60;99.90
42187;DHT22;27858;51.414;0.018;2023-02-12T11:14:29;9.70;99.90
42187;DHT22;27858;51.414;0.018;2023-02-12T11:17:00;9.50;99.90
42187;DHT22;27858;51.414;0.018;2023-02-12T11:19:29;9.60;99.90
42187;DHT22;27858;51.414;0.018;2023-02-12T11:22:09;9.60;99.90
42187;DHT22;27858;51.414;0.018;2023-02-12T11:24:37;9.70;99.90
42187;DHT22;27858;51.414;0.018;2023-02-12T11:27:31;9.70;99.90
42187;DHT22;27858;51.414;0.018;2023-02-12T11:30:24;9.70;99.90
42187;DHT22;27858;51.414;0.018;2023-02-12T11:32:51;9.60;99.90
42187;DHT22;27858;51.414;0.018;2023-02-12T11:35:24;9.60;99.90
42187;DHT22;27858;51.414;0.018;2023-02-12T11:37:59;9.50;99.90
42187;DHT22;27858;51.414;0.018;2023-02-12T11:40:27;9.60;99.90
42187;DHT22;27858;51.414;0.018;2023-02-12T11:43:00;9.60;99.90
42187;DHT22;27858;51.414;0.018;2023-02-12T11:45:42;9.50;99.90
42187;DHT22;27858;51.414;0.018;2023-02-12T11:48:34;9.70;99.90
42187;DHT22;27858;51.414;0.018;2023-02-12T11:51:07;9.60;99.90
42187;DHT22;27858;51.414;0.018;2023-02-12T11:53:39;9.70;99.90
42187;DHT22;27858;51.414;0.018;2023-02-12T11:56:10;9.60;99.90
42187;DHT22;27858;51.414;0.018;2023-02-12T11:58:38;9.60;99.90
42187;DHT22;27858;51.414;0.018;2023-02-12T12:01:18;9.60;99.90
42187;DHT22;27858;51.414;0.018;2023-02-12T12:04:09;9.60;99.90
42187;DHT22;27858;51.414;0.018;2023-02-12T12:06:54;9.70;99.90
42187;DHT22;27858;51.414;0.018;2023-02-12T12:09:42;10.00;99.90
42187;DHT22;27858;51.414;0.018;2023-02-12T12:15:42;10.00;99.90
42187;DHT22;27858;51.414;0.018;2023-02-12T12:18:49;10.00;99.90
42187;DHT22;27858;51.414;0.018;2023-02-12T12:24:16;10.10;99.90
42187;DHT22;27858;51.414;0.018;2023-02-12T12:26:49;10.10;99.90
42187;DHT22;27858;51.414;0.018;2023-02-12T12:30:12;10.20;99.90
42187;DHT22;27858;51.414;0.018;2023-02-12T12:32:18;10.20;99.90
42187;DHT22;27858;51.414;0.018;2023-02-12T12:34:46;10.00;99.90
42187;DHT22;27858;51.414;0.018;2023-02-12T12:43:12;10.00;99.90
42187;DHT22;27858;51.414;0.018;2023-02-12T13:03:28;10.10;99.90
42187;DHT22;27858;51.414;0.018;2023-02-12T13:09:38;10.10;99.90
42187;DHT22;27858;51.414;0.018;2023-02-12T13:24:42;10.10;99.90
42187;DHT22;27858;51.414;0.018;2023-02-12T13:26:50;10.10;99.90
42187;DHT22;27858;51.414;0.018;2023-02-12T13:32:04;10.10;99.90
42187;DHT22;27858;51.414;0.018;2023-02-12T13:34:33;10.10;99.90
42187;DHT22;27858;51.414;0.018;2023-02-12T13:37:02;10.10;99.90
42187;DHT22;27858;51.414;0.018;2023-02-12T13:39:35;10.10;99.90
42187;DHT22;27858;51.414;0.018;2023-02-12T13:42:44;10.20;99.90
42187;DHT22;27858;51.414;0.018;2023-02-12T13:47:35;10.20;99.90
42187;DHT22;27858;51.414;0.018;2023-02-12T13:50:29;10.10;99.90
42187;DHT22;27858;51.414;0.018;2023-02-12T13:53:01;10.10;99.90
42187;DHT22;27858;51.414;0.018;2023-02-12T13:55:34;10.10;99.90
42187;DHT22;27858;51.414;0.018;2023-02-12T14:01:06;10.20;99.90
42187;DHT22;27858;51.414;0.018;2023-02-12T14:03:34;10.10;99.90
42187;DHT22;27858;51.414;0.018;2023-02-12T14:06:12;10.20;99.90
42187;DHT22;27858;51.414;0.018;2023-02-12T14:08:43;10.20;99.90
42187;DHT22;27858;51.414;0.018;2023-02-12T14:11:15;10.00;99.90
42187;DHT22;27858;51.414;0.018;2023-02-12T14:13:59;10.00;99.90
42187;DHT22;27858;51.414;0.018;2023-02-12T14:24:55;10.00;99.90
42187;DHT22;27858;51.414;0.018;2023-02-12T14:27:33;10.10;99.90
42187;DHT22;27858;51.414;0.018;2023-02-12T14:35:33;9.90;99.90
42187;DHT22;27858;51.414;0.018;2023-02-12T14:41:21;9.90;99.90
42187;DHT22;27858;51.414;0.018;2023-02-12T14:49:47;9.80;99.90
42187;DHT22;27858;51.414;0.018;2023-02-12T14:52:18;10.00;99.90
42187;DHT22;27858;51.414;0.018;2023-02-12T14:54:58;9.80;99.90
42187;DHT22;27858;51.414;0.018;2023-02-12T14:57:34;9.90;99.90
42187;DHT22;27858;51.414;0.018;2023-02-12T15:02:52;9.80;99.90
42187;DHT22;27858;51.414;0.018;2023-02-12T15:05:28;9.60;99.90
42187;DHT22;27858;51.414;0.018;2023-02-12T15:10:53;9.80;99.90
42187;DHT22;27858;51.414;0.018;2023-02-12T15:13:59;9.90;99.90
42187;DHT22;27858;51.414;0.018;2023-02-12T15:16:39;9.80;99.90
42187;DHT22;27858;51.414;0.018;2023-02-12T15:21:51;9.70;99.90
42187;DHT22;27858;51.414;0.018;2023-02-12T15:24:22;9.80;99.90
42187;DHT22;27858;51.414;0.018;2023-02-12T15:26:55;9.80;99.90
42187;DHT22;27858;51.414;0.018;2023-02-12T15:29:27;9.80;99.90
42187;DHT22;27858;51.414;0.018;2023-02-12T15:31:56;9.70;99.90
42187;DHT22;27858;51.414;0.018;2023-02-12T15:34:27;9.60;99.90
42187;DHT22;27858;51.414;0.018;2023-02-12T15:36:58;9.50;99.90
42187;DHT22;27858;51.414;0.018;2023-02-12T15:39:26;9.50;99.90
42187;DHT22;27858;51.414;0.018;2023-02-12T15:41:54;9.60;99.90
42187;DHT22;27858;51.414;0.018;2023-02-12T15:44:30;9.40;99.90
42187;DHT22;27858;51.414;0.018;2023-02-12T15:49:30;9.40;99.90
42187;DHT22;27858;51.414;0.018;2023-02-12T15:51:58;9.70;99.90
42187;DHT22;27858;51.414;0.018;2023-02-12T15:54:26;9.40;99.90
42187;DHT22;27858;51.414;0.018;2023-02-12T15:56:54;9.50;99.90
42187;DHT22;27858;51.414;0.018;2023-02-12T15:59:23;9.40;99.90
42187;DHT22;27858;51.414;0.018;2023-02-12T16:01:56;9.50;99.90
42187;DHT22;27858;51.414;0.018;2023-02-12T16:04:24;9.40;99.90
42187;DHT22;27858;51.414;0.018;2023-02-12T16:06:52;9.40;99.90
42187;DHT22;27858;51.414;0.018;2023-02-12T16:09:30;9.50;99.90
42187;DHT22;27858;51.414;0.018;2023-02-12T16:12:01;9.30;99.90
42187;DHT22;27858;51.414;0.018;2023-02-12T16:14:35;9.40;99.90
42187;DHT22;27858;51.414;0.018;2023-02-12T16:22:32;9.30;99.90
42187;DHT22;27858;51.414;0.018;2023-02-12T16:25:00;9.40;99.90
42187;DHT22;27858;51.414;0.018;2023-02-12T16:27:30;9.20;99.90
42187;DHT22;27858;51.414;0.018;2023-02-12T16:30:07;9.20;99.90
42187;DHT22;27858;51.414;0.018;2023-02-12T16:32:48;9.30;99.90
42187;DHT22;27858;51.414;0.018;2023-02-12T16:37:47;9.30;99.90
42187;DHT22;27858;51.414;0.018;2023-02-12T16:50:37;9.20;99.90
42187;DHT22;27858;51.414;0.018;2023-02-12T16:55:57;9.30;99.90
42187;DHT22;27858;51.414;0.018;2023-02-12T16:58:24;9.30;99.90
42187;DHT22;27858;51.414;0.018;2023-02-12T17:00:55;9.10;99.90
42187;DHT22;27858;51.414;0.018;2023-02-12T17:03:23;9.10;99.90
42187;DHT22;27858;51.414;0.018;2023-02-12T17:05:50;9.30;99.90
42187;DHT22;27858;51.414;0.018;2023-02-12T17:08:20;9.10;99.90
42187;DHT22;27858;51.414;0.018;2023-02-12T17:10:47;9.10;99.90
42187;DHT22;27858;51.414;0.018;2023-02-12T17:13:15;9.40;99.90
42187;DHT22;27858;51.414;0.018;2023-02-12T17:15:57;9.30;99.90
42187;DHT22;27858;51.414;0.018;2023-02-12T17:18:25;9.20;99.90
42187;DHT22;27858;51.414;0.018;2023-02-12T17:20:56;9.20;99.90
42187;DHT22;27858;51.414;0.018;2023-02-12T17:23:25;9.30;99.90
42187;DHT22;27858;51.414;0.018;2023-02-12T17:25:52;9.20;99.90
42187;DHT22;27858;51.414;0.018;2023-02-12T17:28:18;9.40;99.90
42187;DHT22;27858;51.414;0.018;2023-02-12T17:30:46;9.20;99.90
42187;DHT22;27858;51.414;0.018;2023-02-12T17:33:13;9.30;99.90
42187;DHT22;27858;51.414;0.018;2023-02-12T17:35:40;9.30;99.90
42187;DHT22;27858;51.414;0.018;2023-02-12T17:38:06;9.30;99.90
42187;DHT22;27858;51.414;0.018;2023-02-12T17:40:34;9.30;99.90
42187;DHT22;27858;51.414;0.018;2023-02-12T17:43:05;9.30;99.90
42187;DHT22;27858;51.414;0.018;2023-02-12T17:45:32;9.10;99.90
42187;DHT22;27858;51.414;0.018;2023-02-12T17:47:59;9.40;99.90
42187;DHT22;27858;51.414;0.018;2023-02-12T17:50:26;9.30;99.90
42187;DHT22;27858;51.414;0.018;2023-02-12T17:52:53;9.10;99.90
42187;DHT22;27858;51.414;0.018;2023-02-12T17:55:19;9.20;99.90
42187;DHT22;27858;51.414;0.018;2023-02-12T17:57:51;9.00;99.90
42187;DHT22;27858;51.414;0.018;2023-02-12T18:00:18;9.20;99.90
42187;DHT22;27858;51.414;0.018;2023-02-12T18:02:46;9.00;99.90
42187;DHT22;27858;51.414;0.018;2023-02-12T18:05:13;9.30;99.90
42187;DHT22;27858;51.414;0.018;2023-02-12T18:07:40;9.10;99.90
42187;DHT22;27858;51.414;0.018;2023-02-12T18:10:08;9.20;99.90
42187;DHT22;27858;51.414;0.018;2023-02-12T18:12:37;9.20;99.90
42187;DHT22;27858;51.414;0.018;2023-02-12T18:15:05;9.00;99.90
42187;DHT22;27858;51.414;0.018;2023-02-12T18:17:33;9.00;99.90
42187;DHT22;27858;51.414;0.018;2023-02-12T18:20:00;9.00;99.90
42187;DHT22;27858;51.414;0.018;2023-02-12T18:22:27;8.90;99.90
42187;DHT22;27858;51.414;0.018;2023-02-12T18:24:54;9.20;99.90
42187;DHT22;27858;51.414;0.018;2023-02-12T18:27:23;8.90;99.90
42187;DHT22;27858;51.414;0.018;2023-02-12T18:29:49;9.20;99.90
42187;DHT22;27858;51.414;0.018;2023-02-12T18:32:16;8.90;99.90
42187;DHT22;27858;51.414;0.018;2023-02-12T18:34:43;8.80;99.90
42187;DHT22;27858;51.414;0.018;2023-02-12T18:37:11;8.80;99.90
42187;DHT22;27858;51.414;0.018;2023-02-12T18:39:38;9.00;99.90
42187;DHT22;27858;51.414;0.018;2023-02-12T18:42:05;8.90;99.90
42187;DHT22;27858;51.414;0.018;2023-02-12T18:44:32;9.00;99.90
42187;DHT22;27858;51.414;0.018;2023-02-12T18:46:59;9.20;99.90
42187;DHT22;27858;51.414;0.018;2023-02-12T18:49:26;9.10;99.90
42187;DHT22;27858;51.414;0.018;2023-02-12T18:51:53;9.10;99.90
42187;DHT22;27858;51.414;0.018;2023-02-12T18:54:20;9.00;99.90
42187;DHT22;27858;51.414;0.018;2023-02-12T18:56:49;8.90;99.90
42187;DHT22;27858;51.414;0.018;2023-02-12T18:59:17;8.90;99.90
42187;DHT22;27858;51.414;0.018;2023-02-12T19:01:44;8.90;99.90
42187;DHT22;27858;51.414;0.018;2023-02-12T19:04:13;8.90;99.90
42187;DHT22;27858;51.414;0.018;2023-02-12T19:06:46;8.90;99.90
42187;DHT22;27858;51.414;0.018;2023-02-12T19:09:14;8.90;99.90
42187;DHT22;27858;51.414;0.018;2023-02-12T19:11:46;8.90;99.90
42187;DHT22;27858;51.414;0.018;2023-02-12T19:14:14;9.00;99.90
42187;DHT22;27858;51.414;0.018;2023-02-12T19:16:42;8.80;99.90
42187;DHT22;27858;51.414;0.018;2023-02-12T19:19:11;9.00;99.90
42187;DHT22;27858;51.414;0.018;2023-02-12T19:21:38;8.90;99.90
42187;DHT22;27858;51.414;0.018;2023-02-12T19:24:05;8.90;99.90